createdAt,value
2018-09-18T00:02:13.647Z,4.20
2018-09-18T00:04:43.120Z,3.97
2018-09-18T00:07:12.518Z,4.60
2018-09-18T00:09:41.899Z,4.37
2018-09-18T00:12:11.301Z,4.40
2018-09-18T00:14:40.665Z,4.57
2018-09-18T00:17:10.041Z,4.30
2018-09-18T00:19:39.461Z,4.13
2018-09-18T00:22:08.884Z,4.53
2018-09-18T00:24:38.318Z,4.80
2018-09-18T00:27:07.713Z,4.80
2018-09-18T00:29:37.074Z,5.03
2018-09-18T00:32:06.570Z,4.80
2018-09-18T00:34:35.996Z,4.80
2018-09-18T00:37:05.439Z,4.63
2018-09-18T00:39:34.795Z,4.50
2018-09-18T00:42:04.178Z,4.50
2018-09-18T00:44:33.644Z,4.20
2018-09-18T00:47:03.040Z,4.60
2018-09-18T00:49:32.462Z,4.13
2018-09-18T00:52:01.892Z,4.40
2018-09-18T00:54:31.299Z,4.03
2018-09-18T00:57:00.885Z,4.47
2018-09-18T00:59:30.256Z,3.90
2018-09-18T01:01:59.679Z,4.03
2018-09-18T01:04:29.094Z,4.00
2018-09-18T01:06:58.548Z,4.00
2018-09-18T01:09:27.939Z,4.00
2018-09-18T01:11:57.389Z,4.37
2018-09-18T01:14:26.784Z,4.17
2018-09-18T01:16:56.157Z,3.90
2018-09-18T01:19:25.546Z,3.33
2018-09-18T01:21:54.985Z,4.00
2018-09-18T01:24:24.400Z,4.33
2018-09-18T01:26:53.793Z,4.13
2018-09-18T01:29:23.200Z,3.23
2018-09-18T01:31:52.613Z,3.30
2018-09-18T01:34:21.968Z,3.53
2018-09-18T01:36:51.369Z,3.70
2018-09-18T01:39:20.795Z,3.60
2018-09-18T01:41:50.223Z,3.67
2018-09-18T01:44:19.701Z,3.27
2018-09-18T01:46:49.115Z,3.20
2018-09-18T01:49:18.548Z,3.07
2018-09-18T01:51:47.976Z,3.73
2018-09-18T01:54:17.368Z,3.20
2018-09-18T01:56:46.853Z,3.70
2018-09-18T01:59:16.385Z,3.77
2018-09-18T02:01:45.791Z,3.23
2018-09-18T02:04:15.215Z,3.73
2018-09-18T02:06:44.627Z,4.17
2018-09-18T02:09:14.051Z,4.00
2018-09-18T02:11:43.504Z,3.50
2018-09-18T02:14:12.920Z,3.93
2018-09-18T02:16:42.377Z,3.80
2018-09-18T02:19:11.816Z,3.13
2018-09-18T02:21:41.266Z,4.00
2018-09-18T02:24:10.632Z,3.33
2018-09-18T02:26:40.091Z,3.47
2018-09-18T02:29:09.479Z,3.30
2018-09-18T02:31:38.916Z,3.53
2018-09-18T02:34:08.319Z,3.40
2018-09-18T02:36:37.742Z,3.80
2018-09-18T02:39:10.089Z,3.67
2018-09-18T02:41:39.502Z,3.53
2018-09-18T02:44:08.976Z,3.73
2018-09-18T02:46:38.471Z,4.00
2018-09-18T02:49:08.015Z,3.97
2018-09-18T02:51:37.391Z,3.80
2018-09-18T02:54:06.964Z,3.40
2018-09-18T02:56:36.397Z,3.73
2018-09-18T02:59:05.804Z,3.50
2018-09-18T03:01:35.215Z,3.93
2018-09-18T03:04:04.641Z,4.23
2018-09-18T03:06:34.110Z,4.20
2018-09-18T03:09:04.305Z,4.27
2018-09-18T03:11:33.733Z,3.83
2018-09-18T03:14:03.147Z,3.73
2018-09-18T03:16:32.555Z,3.73
2018-09-18T03:19:01.983Z,3.70
2018-09-18T03:21:31.400Z,3.73
2018-09-18T03:24:00.784Z,3.80
2018-09-18T03:26:30.214Z,4.07
2018-09-18T03:28:59.593Z,4.00
2018-09-18T03:31:29.024Z,4.07
2018-09-18T03:33:58.481Z,3.63
2018-09-18T03:36:27.968Z,3.77
2018-09-18T03:38:57.384Z,3.70
2018-09-18T03:41:26.793Z,4.00
2018-09-18T03:43:56.182Z,3.87
2018-09-18T03:46:25.581Z,3.57
2018-09-18T03:48:55.002Z,4.03
2018-09-18T03:51:24.467Z,4.50
2018-09-18T03:53:53.921Z,4.00
2018-09-18T03:56:23.331Z,4.47
2018-09-18T03:58:52.743Z,4.27
2018-09-18T04:01:22.192Z,4.10
2018-09-18T04:03:51.604Z,4.70
2018-09-18T04:06:21.073Z,4.07
2018-09-18T04:08:50.464Z,4.17
2018-09-18T04:11:19.966Z,4.47
2018-09-18T04:13:49.328Z,4.57
2018-09-18T04:16:18.776Z,4.07
2018-09-18T04:18:48.243Z,4.00
2018-09-18T04:21:17.682Z,4.17
2018-09-18T04:23:47.109Z,4.33
2018-09-18T04:26:16.505Z,4.20
2018-09-18T04:28:45.975Z,3.73
2018-09-18T04:31:15.406Z,4.57
2018-09-18T04:33:44.835Z,4.37
2018-09-18T04:36:14.258Z,4.40
2018-09-18T04:38:43.703Z,4.73
2018-09-18T04:41:13.136Z,4.57
2018-09-18T04:43:42.540Z,4.37
2018-09-18T04:46:12.005Z,4.83
2018-09-18T04:48:41.433Z,4.77
2018-09-18T04:51:11.142Z,4.63
2018-09-18T04:53:40.612Z,4.47
2018-09-18T04:56:10.299Z,4.13
2018-09-18T04:58:39.697Z,4.70
2018-09-18T05:01:09.112Z,4.73
2018-09-18T05:03:38.526Z,4.83
2018-09-18T05:06:07.969Z,4.30
2018-09-18T05:08:37.430Z,4.53
2018-09-18T05:11:06.855Z,4.50
2018-09-18T05:13:36.282Z,4.50
2018-09-18T05:16:05.748Z,4.27
2018-09-18T05:18:35.208Z,4.60
2018-09-18T05:21:04.624Z,4.60
2018-09-18T05:23:34.041Z,4.67
2018-09-18T05:26:03.500Z,4.60
2018-09-18T05:28:32.937Z,4.53
2018-09-18T05:31:02.359Z,4.20
2018-09-18T05:33:31.809Z,4.13
2018-09-18T05:36:01.197Z,4.43
2018-09-18T05:38:30.638Z,4.30
2018-09-18T05:41:00.076Z,4.20
2018-09-18T05:43:29.825Z,4.17
2018-09-18T05:45:59.284Z,4.30
2018-09-18T05:48:33.239Z,4.20
2018-09-18T05:51:02.864Z,3.70
2018-09-18T05:53:32.257Z,3.50
2018-09-18T05:56:01.688Z,4.17
2018-09-18T05:58:31.100Z,3.87
2018-09-18T06:01:00.530Z,3.80
2018-09-18T06:03:29.958Z,4.47
2018-09-18T06:05:59.395Z,3.80
2018-09-18T06:08:28.792Z,4.40
2018-09-18T06:10:58.204Z,3.63
2018-09-18T06:13:27.631Z,3.80
2018-09-18T06:15:57.037Z,3.60
2018-09-18T06:18:26.460Z,4.07
2018-09-18T06:20:55.905Z,3.60
2018-09-18T06:23:25.356Z,3.57
2018-09-18T06:25:54.773Z,3.67
2018-09-18T06:28:24.157Z,3.40
2018-09-18T06:30:53.606Z,3.50
2018-09-18T06:33:23.056Z,3.57
2018-09-18T06:35:52.576Z,3.63
2018-09-18T06:38:21.961Z,3.60
2018-09-18T06:40:51.452Z,3.57
2018-09-18T06:43:20.855Z,3.60
2018-09-18T06:45:50.532Z,3.00
2018-09-18T06:48:20.383Z,3.27
2018-09-18T06:50:49.861Z,3.40
2018-09-18T06:53:19.306Z,3.40
2018-09-18T06:55:48.750Z,3.60
2018-09-18T06:58:18.141Z,3.23
2018-09-18T07:00:47.673Z,3.20
2018-09-18T07:03:17.056Z,3.20
2018-09-18T07:05:46.540Z,3.33
2018-09-18T07:08:16.043Z,2.73
2018-09-18T07:10:45.484Z,3.13
2018-09-18T07:13:14.998Z,3.27
2018-09-18T07:15:44.415Z,3.27
2018-09-18T07:18:13.889Z,3.40
2018-09-18T07:20:43.328Z,3.13
2018-09-18T07:23:12.800Z,3.00
2018-09-18T07:25:42.904Z,3.53
2018-09-18T07:28:13.507Z,3.43
2018-09-18T07:30:43.134Z,3.00
2018-09-18T07:33:12.577Z,3.33
2018-09-18T07:35:42.226Z,3.20
2018-09-18T07:38:11.691Z,3.33
2018-09-18T07:40:41.465Z,3.00
2018-09-18T07:43:10.977Z,3.13
2018-09-18T07:45:40.412Z,3.30
2018-09-18T07:48:09.813Z,3.30
2018-09-18T07:50:39.518Z,3.20
2018-09-18T07:53:08.962Z,3.00
2018-09-18T07:55:38.682Z,3.40
2018-09-18T07:58:08.135Z,3.10
2018-09-18T08:00:37.612Z,2.97
2018-09-18T08:03:07.129Z,3.10
2018-09-18T08:05:36.606Z,3.17
2018-09-18T08:08:06.511Z,2.90
2018-09-18T08:10:36.032Z,3.50
2018-09-18T08:13:05.777Z,3.30
2018-09-18T08:15:35.174Z,3.53
2018-09-18T08:18:04.831Z,3.90
2018-09-18T08:20:34.245Z,3.33
2018-09-18T08:23:04.109Z,3.70
2018-09-18T08:25:35.886Z,2.87
2018-09-18T08:28:05.817Z,3.37
2018-09-18T08:30:41.871Z,3.43
2018-09-18T08:33:11.309Z,3.80
2018-09-18T08:35:40.788Z,3.30
2018-09-18T08:38:10.187Z,3.60
2018-09-18T08:40:39.635Z,3.47
2018-09-18T08:43:09.071Z,3.50
2018-09-18T08:45:38.540Z,3.90
2018-09-18T08:48:07.967Z,3.40
2018-09-18T08:50:39.021Z,3.60
2018-09-18T08:53:08.491Z,3.53
2018-09-18T08:55:37.976Z,3.40
2018-09-18T08:58:07.414Z,3.30
2018-09-18T09:00:37.204Z,2.93
2018-09-18T09:03:06.623Z,3.67
2018-09-18T09:05:36.003Z,3.57
2018-09-18T09:08:05.546Z,3.70
2018-09-18T09:10:34.954Z,3.63
2018-09-18T09:13:04.812Z,3.80
2018-09-18T09:15:34.416Z,3.60
2018-09-18T09:18:04.240Z,3.53
2018-09-18T09:20:33.612Z,2.90
2018-09-18T09:23:03.040Z,3.60
2018-09-18T09:25:32.534Z,3.77
2018-09-18T09:28:01.988Z,3.63
2018-09-18T09:30:31.380Z,3.83
2018-09-18T09:33:00.836Z,3.60
2018-09-18T09:35:30.266Z,3.23
2018-09-18T09:37:59.637Z,3.40
2018-09-18T09:40:29.079Z,3.63
2018-09-18T09:42:58.592Z,3.43
2018-09-18T09:45:28.024Z,3.03
2018-09-18T09:47:57.478Z,3.43
2018-09-18T09:50:26.965Z,3.80
2018-09-18T09:52:56.388Z,3.60
2018-09-18T09:55:25.830Z,3.20
2018-09-18T09:57:55.289Z,3.33
2018-09-18T10:00:29.976Z,3.77
2018-09-18T10:02:59.412Z,3.50
2018-09-18T10:05:28.778Z,3.50
2018-09-18T10:07:58.194Z,3.50
2018-09-18T10:10:27.686Z,3.20
2018-09-18T10:12:57.048Z,3.30
2018-09-18T10:15:26.552Z,3.10
2018-09-18T10:17:56.496Z,2.72
2018-09-18T10:20:31.044Z,3.10
2018-09-18T10:23:00.433Z,3.45
2018-09-18T10:25:33.920Z,3.85
2018-09-18T10:28:03.445Z,3.62
2018-09-18T10:30:32.940Z,2.87
2018-09-18T10:33:02.378Z,3.50
2018-09-18T10:35:31.856Z,3.15
2018-09-18T10:38:01.308Z,3.10
2018-09-18T10:40:30.729Z,3.20
2018-09-18T10:43:00.279Z,3.50
2018-09-18T10:45:29.770Z,3.22
2018-09-18T10:48:02.534Z,3.40
2018-09-18T10:50:32.066Z,3.55
2018-09-18T10:53:01.554Z,3.20
2018-09-18T10:55:30.973Z,3.40
2018-09-18T10:58:00.827Z,2.95
2018-09-18T11:00:30.232Z,3.10
2018-09-18T11:02:59.747Z,2.98
2018-09-18T11:05:29.178Z,3.05
2018-09-18T11:07:58.634Z,3.75
2018-09-18T11:10:28.123Z,3.22
2018-09-18T11:12:57.550Z,3.25
2018-09-18T11:15:27.749Z,2.95
2018-09-18T11:17:57.211Z,3.08
2018-09-18T11:20:26.581Z,3.20
2018-09-18T11:22:56.010Z,3.08
2018-09-18T11:25:25.426Z,3.08
2018-09-18T11:27:54.863Z,3.30
2018-09-18T11:30:24.397Z,3.30
2018-09-18T11:32:53.858Z,3.33
2018-09-18T11:35:23.249Z,3.17
2018-09-18T11:37:52.633Z,3.10
2018-09-18T11:40:22.083Z,3.25
2018-09-18T11:42:51.787Z,3.83
2018-09-18T11:45:21.237Z,3.00
2018-09-18T11:47:50.737Z,3.37
2018-09-18T11:50:20.143Z,3.33
2018-09-18T11:52:49.634Z,3.20
2018-09-18T11:55:19.200Z,3.30
2018-09-18T11:57:48.813Z,3.58
2018-09-18T12:00:18.403Z,3.15
2018-09-18T12:02:50.844Z,3.40
2018-09-18T12:05:21.544Z,3.30
2018-09-18T12:07:50.997Z,3.42
2018-09-18T12:10:20.437Z,3.37
2018-09-18T12:12:52.179Z,3.05
2018-09-18T12:15:29.847Z,3.05
2018-09-18T12:17:59.305Z,3.00
2018-09-18T12:20:28.851Z,2.83
2018-09-18T12:22:58.242Z,3.35
2018-09-18T12:25:27.692Z,3.20
2018-09-18T12:27:57.108Z,3.20
2018-09-18T12:30:26.687Z,2.80
2018-09-18T12:32:56.149Z,2.85
2018-09-18T12:35:25.602Z,3.12
2018-09-18T12:37:55.002Z,3.08
2018-09-18T12:40:24.478Z,3.27
2018-09-18T12:42:53.853Z,3.25
2018-09-18T12:45:23.309Z,3.15
2018-09-18T12:47:52.760Z,3.40
2018-09-18T12:50:22.425Z,2.80
2018-09-18T12:52:51.716Z,3.00
2018-09-18T12:55:21.147Z,2.85
2018-09-18T12:57:50.692Z,3.08
2018-09-18T13:00:20.210Z,3.20
2018-09-18T13:02:49.644Z,2.90
2018-09-18T13:05:19.138Z,3.00
2018-09-18T13:07:48.590Z,2.92
2018-09-18T13:10:18.010Z,3.05
2018-09-18T13:12:47.450Z,3.30
2018-09-18T13:15:16.911Z,3.20
2018-09-18T13:17:46.324Z,3.10
2018-09-18T13:20:15.808Z,3.00
2018-09-18T13:22:45.197Z,3.40
2018-09-18T13:25:19.579Z,3.27
2018-09-18T13:27:49.122Z,2.92
2018-09-18T13:30:18.580Z,3.20
2018-09-18T13:32:48.044Z,3.30
2018-09-18T13:35:17.482Z,3.65
2018-09-18T13:37:46.880Z,3.22
2018-09-18T13:40:16.316Z,3.25
2018-09-18T13:42:46.076Z,3.42
2018-09-18T13:45:15.498Z,3.40
2018-09-18T13:47:44.949Z,3.50
2018-09-18T13:50:14.465Z,3.90
2018-09-18T13:52:43.862Z,3.92
2018-09-18T13:55:13.325Z,3.95
2018-09-18T13:57:42.824Z,3.87
2018-09-18T14:00:12.337Z,3.65
2018-09-18T14:02:41.810Z,3.52
2018-09-18T14:05:11.486Z,3.52
2018-09-18T14:07:40.882Z,3.65
2018-09-18T14:10:12.676Z,3.20
2018-09-18T14:12:42.078Z,3.20
2018-09-18T14:15:11.700Z,3.50
2018-09-18T14:17:41.075Z,3.00
2018-09-18T14:20:10.543Z,3.17
2018-09-18T14:22:39.970Z,3.20
2018-09-18T14:25:09.328Z,3.35
2018-09-18T14:27:38.757Z,3.42
2018-09-18T14:30:08.245Z,3.65
2018-09-18T14:32:37.686Z,3.70
2018-09-18T14:35:07.205Z,3.45
2018-09-18T14:37:36.601Z,3.52
2018-09-18T14:40:06.075Z,2.95
2018-09-18T14:42:35.541Z,3.50
2018-09-18T14:45:05.148Z,3.55
2018-09-18T14:47:34.611Z,3.40
2018-09-18T14:50:04.105Z,3.25
2018-09-18T14:52:33.533Z,3.65
2018-09-18T14:55:02.935Z,3.30
2018-09-18T14:57:32.674Z,3.55
2018-09-18T15:00:02.280Z,3.40
2018-09-18T15:02:34.483Z,3.50
2018-09-18T15:05:06.249Z,3.25
2018-09-18T15:07:35.899Z,3.17
2018-09-18T15:10:05.401Z,3.17
2018-09-18T15:12:34.817Z,3.20
2018-09-18T15:15:04.333Z,3.12
2018-09-18T15:17:33.708Z,3.25
2018-09-18T15:20:03.198Z,3.15
2018-09-18T15:22:32.627Z,3.47
2018-09-18T15:25:02.067Z,3.17
2018-09-18T15:27:32.258Z,3.15
2018-09-18T15:30:01.653Z,3.40
2018-09-18T15:32:31.088Z,3.37
2018-09-18T15:35:00.523Z,3.33
2018-09-18T15:37:30.011Z,3.12
2018-09-18T15:39:59.446Z,3.20
2018-09-18T15:42:28.997Z,3.17
2018-09-18T15:44:58.434Z,3.05
2018-09-18T15:47:27.917Z,3.00
2018-09-18T15:49:57.342Z,3.00
2018-09-18T15:52:26.735Z,3.20
2018-09-18T15:54:56.149Z,3.33
2018-09-18T15:57:25.602Z,3.10
2018-09-18T15:59:55.450Z,3.10
2018-09-18T16:02:24.865Z,2.72
2018-09-18T16:04:54.385Z,3.27
2018-09-18T16:07:23.972Z,3.10
2018-09-18T16:09:53.524Z,3.02
2018-09-18T16:12:22.891Z,3.30
2018-09-18T16:14:52.657Z,3.15
2018-09-18T16:17:22.453Z,3.20
2018-09-18T16:19:51.891Z,3.25
2018-09-18T16:22:21.516Z,3.40
2018-09-18T16:24:54.005Z,3.20
2018-09-18T16:27:23.394Z,2.98
2018-09-18T16:29:52.853Z,3.27
2018-09-18T16:32:22.264Z,3.12
2018-09-18T16:34:51.772Z,3.15
2018-09-18T16:37:21.261Z,3.02
2018-09-18T16:39:50.701Z,3.50
2018-09-18T16:42:20.185Z,2.98
2018-09-18T16:44:49.615Z,3.20
2018-09-18T16:47:19.112Z,3.20
2018-09-18T16:49:48.502Z,3.22
2018-09-18T16:52:18.022Z,3.30
2018-09-18T16:54:47.833Z,3.55
2018-09-18T16:57:17.439Z,3.20
2018-09-18T16:59:49.451Z,3.40
2018-09-18T17:02:19.001Z,3.45
2018-09-18T17:04:48.401Z,3.00
2018-09-18T17:07:17.795Z,2.90
2018-09-18T17:09:47.212Z,3.05
2018-09-18T17:12:16.611Z,2.97
2018-09-18T17:14:46.210Z,2.80
2018-09-18T17:17:15.600Z,2.85
2018-09-18T17:19:45.164Z,2.55
2018-09-18T17:22:16.106Z,2.50
2018-09-18T17:24:45.821Z,2.90
2018-09-18T17:27:15.775Z,2.37
2018-09-18T17:29:46.089Z,2.70
2018-09-18T17:32:15.625Z,2.50
2018-09-18T17:34:45.120Z,2.37
2018-09-18T17:37:14.594Z,2.77
2018-09-18T17:39:44.037Z,2.80
2018-09-18T17:42:13.461Z,2.80
2018-09-18T17:44:42.903Z,2.37
2018-09-18T17:47:14.030Z,2.70
2018-09-18T17:49:43.535Z,2.53
2018-09-18T17:52:12.990Z,2.30
2018-09-18T17:54:42.436Z,2.83
2018-09-18T17:57:13.738Z,2.60
2018-09-18T17:59:43.247Z,2.90
2018-09-18T18:02:12.873Z,2.60
2018-09-18T18:04:42.289Z,2.30
2018-09-18T18:07:12.024Z,2.60
2018-09-18T18:09:41.777Z,2.47
2018-09-18T18:12:11.235Z,3.10
2018-09-18T18:14:40.667Z,2.50
2018-09-18T18:17:10.086Z,2.47
2018-09-18T18:19:39.483Z,2.50
2018-09-18T18:22:08.971Z,2.50
2018-09-18T18:24:38.449Z,2.70
2018-09-18T18:27:07.906Z,2.60
2018-09-18T18:29:37.465Z,2.80
2018-09-18T18:32:06.924Z,2.40
2018-09-18T18:34:36.409Z,2.80
2018-09-18T18:37:06.034Z,2.30
2018-09-18T18:39:35.524Z,2.33
2018-09-18T18:42:05.007Z,2.63
2018-09-18T18:44:34.497Z,2.50
2018-09-18T18:47:03.942Z,2.70
2018-09-18T18:49:36.653Z,2.47
2018-09-18T18:52:07.559Z,2.30
2018-09-18T18:54:37.349Z,2.47
2018-09-18T18:57:07.439Z,2.47
2018-09-18T18:59:37.037Z,2.67
2018-09-18T19:02:15.099Z,2.50
2018-09-18T19:04:48.160Z,2.60
2018-09-18T19:07:17.701Z,2.67
2018-09-18T19:09:47.107Z,2.40
2018-09-18T19:12:19.699Z,2.17
2018-09-18T19:14:49.208Z,2.40
2018-09-18T19:17:21.065Z,2.53
2018-09-18T19:19:50.542Z,2.30
2018-09-18T19:22:20.128Z,2.50
2018-09-18T19:24:56.685Z,2.50
2018-09-18T19:27:26.570Z,2.53
2018-09-18T19:29:56.028Z,2.43
2018-09-18T19:32:26.530Z,2.83
2018-09-18T19:34:56.457Z,2.70
2018-09-18T19:37:25.901Z,2.60
2018-09-18T19:39:55.368Z,2.83
2018-09-18T19:42:29.510Z,2.60
2018-09-18T19:44:58.982Z,2.90
2018-09-18T19:47:28.473Z,2.60
2018-09-18T19:49:57.943Z,2.87
2018-09-18T19:52:27.573Z,2.53
2018-09-18T19:54:57.114Z,3.00
2018-09-18T19:57:26.922Z,2.80
2018-09-18T19:59:56.396Z,2.93
2018-09-18T20:02:26.066Z,3.27
2018-09-18T20:04:55.471Z,2.80
2018-09-18T20:07:24.962Z,3.47
2018-09-18T20:10:02.013Z,2.90
2018-09-18T20:12:31.464Z,3.27
2018-09-18T20:15:01.008Z,3.23
2018-09-18T20:17:30.390Z,2.87
2018-09-18T20:19:59.907Z,3.07
2018-09-18T20:22:29.347Z,2.90
2018-09-18T20:24:58.739Z,2.90
2018-09-18T20:27:28.182Z,2.80
2018-09-18T20:29:57.620Z,3.30
2018-09-18T20:32:27.078Z,3.37
2018-09-18T20:34:56.869Z,3.17
2018-09-18T20:37:26.673Z,3.60
2018-09-18T20:39:56.117Z,2.90
2018-09-18T20:42:25.511Z,2.90
2018-09-18T20:44:59.666Z,2.93
2018-09-18T20:47:29.078Z,3.17
2018-09-18T20:49:58.493Z,2.90
2018-09-18T20:52:27.890Z,3.27
2018-09-18T20:54:59.354Z,3.07
2018-09-18T20:57:29.701Z,3.30
2018-09-18T20:59:59.252Z,3.03
2018-09-18T21:02:37.672Z,3.40
2018-09-18T21:05:07.127Z,3.00
2018-09-18T21:07:36.584Z,3.47
2018-09-18T21:10:13.853Z,3.77
2018-09-18T21:12:43.347Z,3.57
2018-09-18T21:15:12.821Z,3.43
2018-09-18T21:17:42.215Z,3.00
2018-09-18T21:20:11.756Z,3.33
2018-09-18T21:22:41.199Z,3.40
2018-09-18T21:25:14.899Z,3.30
2018-09-18T21:27:45.548Z,3.40
2018-09-18T21:30:16.276Z,3.20
2018-09-18T21:32:45.753Z,3.63
2018-09-18T21:35:15.177Z,3.63
2018-09-18T21:37:44.622Z,3.70
2018-09-18T21:40:14.044Z,3.60
2018-09-18T21:42:43.463Z,3.50
2018-09-18T21:45:12.888Z,4.03
2018-09-18T21:47:42.550Z,3.37
2018-09-18T21:50:12.055Z,3.87
2018-09-18T21:52:41.679Z,4.03
2018-09-18T21:55:11.186Z,4.27
2018-09-18T21:57:41.129Z,3.80
2018-09-18T22:00:11.596Z,3.87
2018-09-18T22:02:41.613Z,3.60
2018-09-18T22:05:11.845Z,3.90
2018-09-18T22:07:41.430Z,3.40
2018-09-18T22:10:10.830Z,3.90
2018-09-18T22:12:40.290Z,3.67
2018-09-18T22:15:09.673Z,4.27
2018-09-18T22:17:39.105Z,3.67
2018-09-18T22:20:09.379Z,3.80
2018-09-18T22:22:39.744Z,3.87
2018-09-18T22:25:09.142Z,4.23
2018-09-18T22:27:38.608Z,3.70
2018-09-18T22:30:09.153Z,3.93
2018-09-18T22:32:38.681Z,3.87
2018-09-18T22:35:08.096Z,4.23
2018-09-18T22:37:37.515Z,3.57
2018-09-18T22:40:07.112Z,4.03
2018-09-18T22:42:36.656Z,4.10
2018-09-18T22:45:06.156Z,4.30
2018-09-18T22:47:36.054Z,3.47
2018-09-18T22:50:05.687Z,4.00
2018-09-18T22:52:35.141Z,3.90
2018-09-18T22:55:04.633Z,3.93
2018-09-18T22:57:34.107Z,3.93
2018-09-18T23:00:03.539Z,4.20
2018-09-18T23:02:32.978Z,4.07
2018-09-18T23:05:02.428Z,3.80
2018-09-18T23:07:31.792Z,3.90
2018-09-18T23:10:01.246Z,4.00
2018-09-18T23:12:30.935Z,4.07
2018-09-18T23:15:00.360Z,4.50
2018-09-18T23:17:29.841Z,4.00
2018-09-18T23:19:59.284Z,4.70
2018-09-18T23:22:28.690Z,4.70
2018-09-18T23:24:58.107Z,4.10
2018-09-18T23:27:27.563Z,4.33
2018-09-18T23:29:56.989Z,4.60
2018-09-18T23:32:26.392Z,5.00
2018-09-18T23:34:55.792Z,4.93
2018-09-18T23:37:25.147Z,4.40
2018-09-18T23:39:54.578Z,4.80
2018-09-18T23:42:24.045Z,4.40
2018-09-18T23:44:53.775Z,4.53
2018-09-18T23:47:23.186Z,4.87
2018-09-18T23:49:52.580Z,4.47
2018-09-18T23:52:22.024Z,4.50
2018-09-18T23:54:51.444Z,4.50
2018-09-18T23:57:20.877Z,4.90
2018-09-18T23:59:50.341Z,4.70
